Bovee, South Dakota
Current Conditions -  °F | °C
As of 3:53 AM on Sunday 23 Nov 2014 (Local Time) from KMHE Reporting Station
Clear Clear  
Wind Chill: 27°   Ceiling: Unl
Heat Index: 34°   Visibility: 10mi
Dew Point: 31°   Wind: 8mph
Humidity: 89%   Direction: 290°WNW
Pressure: 29.42"   Gusts: NA
Location:  43.2601°N, 98.6864°W
Report Text: KMHE 230953Z AUTO 29007KT 10SM CLR 01/M01 A2942 RMK AO2 SLP971 T00111006 $
Loading
Personal Weather Stations






























Interactive Weather Map New forecast layout! Learn more

10-Day Weather Forecast

Advertisements
Track Severe Weather on mobile